ARRIS11 KEDW-KEDW
Flight info
| Callsign | ARRIS11 |
|---|---|
| Flight time | 0h 31m |
| Altitude | 23000 |
| Route | VCV288033 |
| Aircraft | B762/H-VGDW/C |
Departure
| Time | 2026-05-06 05:32 |
|---|---|
| Airport | Edwards Air Force Base (KEDW) |
Arrival
| Time | 2026-05-06 06:04 |
|---|---|
| Airport | Edwards Air Force Base (KEDW) |
| Time | Latitude | Longitude | Altitude | Speed | Heading |
|---|---|---|---|---|---|
| 2026-05-06 05:23 | 35.78416 | -117.54442 | 25052 ft | 302 kts | 9° |
| 2026-05-06 05:24 | 35.80564 | -117.54559 | 25050 ft | 322 kts | 354° |
| 2026-05-06 05:24 | 35.82756 | -117.55553 | 25111 ft | 346 kts | 338° |
| 2026-05-06 05:24 | 35.84741 | -117.57404 | 25149 ft | 371 kts | 321° |
| 2026-05-06 05:24 | 35.86331 | -117.59977 | 25193 ft | 396 kts | 306° |
| 2026-05-06 05:25 | 35.87428 | -117.63232 | 25233 ft | 420 kts | 290° |
| 2026-05-06 05:25 | 35.87871 | -117.66843 | 25267 ft | 440 kts | 277° |
| 2026-05-06 05:25 | 35.87738 | -117.70686 | 25290 ft | 458 kts | 266° |
| 2026-05-06 05:25 | 35.87087 | -117.74593 | 25071 ft | 479 kts | 257° |
| 2026-05-06 05:26 | 35.85938 | -117.78430 | 24537 ft | 481 kts | 247° |
| 2026-05-06 05:26 | 35.84300 | -117.82018 | 24009 ft | 478 kts | 236° |
| 2026-05-06 05:26 | 35.82256 | -117.85203 | 23390 ft | 471 kts | 227° |
| 2026-05-06 05:26 | 35.79899 | -117.87880 | 22594 ft | 459 kts | 216° |
| 2026-05-06 05:27 | 35.77262 | -117.90005 | 21840 ft | 452 kts | 206° |
| 2026-05-06 05:27 | 35.74398 | -117.91554 | 21010 ft | 445 kts | 196° |
| 2026-05-06 05:27 | 35.71452 | -117.92452 | 20223 ft | 432 kts | 185° |
| 2026-05-06 05:27 | 35.68505 | -117.92722 | 19254 ft | 423 kts | 174° |
| 2026-05-06 05:28 | 35.65663 | -117.92229 | 18396 ft | 410 kts | 160° |
| 2026-05-06 05:28 | 35.63081 | -117.90938 | 17591 ft | 396 kts | 145° |
| 2026-05-06 05:28 | 35.60822 | -117.89037 | 16634 ft | 390 kts | 141° |
| 2026-05-06 05:28 | 35.58511 | -117.87345 | 15754 ft | 389 kts | 149° |
| 2026-05-06 05:29 | 35.56083 | -117.85937 | 14959 ft | 385 kts | 152° |
| 2026-05-06 05:29 | 35.53632 | -117.84672 | 14043 ft | 382 kts | 154° |
| 2026-05-06 05:29 | 35.51184 | -117.83492 | 13268 ft | 377 kts | 156° |
| 2026-05-06 05:29 | 35.48748 | -117.82378 | 12484 ft | 372 kts | 156° |
| 2026-05-06 05:30 | 35.46328 | -117.81297 | 11580 ft | 370 kts | 157° |
| 2026-05-06 05:30 | 35.43932 | -117.80245 | 11001 ft | 362 kts | 157° |
| 2026-05-06 05:30 | 35.42358 | -117.79558 | 10762 ft | 371 kts | 157° |
| 2026-05-06 05:30 | 35.39030 | -117.78115 | 10072 ft | 383 kts | 157° |
| 2026-05-06 05:31 | 35.36544 | -117.77046 | 9430 ft | 370 kts | 158° |
| 2026-05-06 05:31 | 35.34163 | -117.76022 | 8940 ft | 355 kts | 158° |
| 2026-05-06 05:31 | 35.31883 | -117.75042 | 8494 ft | 341 kts | 158° |
| 2026-05-06 05:31 | 35.29703 | -117.74107 | 8131 ft | 326 kts | 158° |
| 2026-05-06 05:32 | 35.27611 | -117.73209 | 7883 ft | 308 kts | 159° |
| 2026-05-06 05:32 | 35.25645 | -117.72366 | 7720 ft | 290 kts | 158° |
| 2026-05-06 05:32 | 35.23813 | -117.71583 | 7607 ft | 274 kts | 159° |
| 2026-05-06 05:32 | 35.22030 | -117.70818 | 7523 ft | 271 kts | 158° |
| 2026-05-06 05:33 | 35.20203 | -117.70034 | 7459 ft | 279 kts | 159° |
| 2026-05-06 05:33 | 35.18370 | -117.69250 | 7350 ft | 280 kts | 159° |
| 2026-05-06 05:33 | 35.17132 | -117.68720 | 7247 ft | 280 kts | 159° |
| 2026-05-06 05:33 | 35.15296 | -117.67935 | 7106 ft | 278 kts | 159° |
| 2026-05-06 05:34 | 35.12883 | -117.66904 | 6885 ft | 276 kts | 159° |
| 2026-05-06 05:34 | 35.11065 | -117.66129 | 6702 ft | 276 kts | 159° |
| 2026-05-06 05:34 | 35.09263 | -117.65359 | 6517 ft | 274 kts | 160° |
| 2026-05-06 05:34 | 35.07458 | -117.64589 | 6322 ft | 274 kts | 160° |
| 2026-05-06 05:35 | 35.05640 | -117.64005 | 6110 ft | 264 kts | 179° |
| 2026-05-06 05:35 | 35.03902 | -117.64413 | 5927 ft | 248 kts | 210° |
| 2026-05-06 05:35 | 35.02611 | -117.65713 | 5613 ft | 240 kts | 232° |
| 2026-05-06 05:35 | 35.01617 | -117.67258 | 5436 ft | 228 kts | 234° |
| 2026-05-06 05:36 | 35.00699 | -117.68784 | 5250 ft | 216 kts | 236° |
| 2026-05-06 05:36 | 34.99875 | -117.70242 | 4919 ft | 203 kts | 237° |
| 2026-05-06 05:36 | 34.99110 | -117.71655 | 4455 ft | 194 kts | 238° |
| 2026-05-06 05:36 | 34.98421 | -117.72955 | 4162 ft | 173 kts | 238° |
| 2026-05-06 05:37 | 34.97820 | -117.74106 | 4058 ft | 150 kts | 238° |
| 2026-05-06 05:37 | 34.97274 | -117.75161 | 4066 ft | 151 kts | 238° |
| 2026-05-06 05:37 | 34.96691 | -117.76296 | 3930 ft | 159 kts | 238° |
| 2026-05-06 05:37 | 34.96110 | -117.77432 | 3715 ft | 154 kts | 238° |
| 2026-05-06 05:38 | 34.95557 | -117.78514 | 3525 ft | 150 kts | 238° |
| 2026-05-06 05:38 | 34.95007 | -117.79594 | 3356 ft | 150 kts | 238° |
| 2026-05-06 05:38 | 34.94453 | -117.80683 | 3192 ft | 151 kts | 238° |
| 2026-05-06 05:38 | 34.93901 | -117.81767 | 3021 ft | 151 kts | 238° |
| 2026-05-06 05:39 | 34.93348 | -117.82854 | 2852 ft | 149 kts | 237° |
| 2026-05-06 05:39 | 34.92800 | -117.83929 | 2683 ft | 149 kts | 237° |
| 2026-05-06 05:39 | 34.92258 | -117.84995 | 2516 ft | 149 kts | 237° |
| 2026-05-06 05:39 | 34.91711 | -117.86070 | 2405 ft | 146 kts | 236° |
| 2026-05-06 05:40 | 34.91156 | -117.87115 | 2420 ft | 147 kts | 236° |
| 2026-05-06 05:40 | 34.90602 | -117.88161 | 2429 ft | 149 kts | 236° |
| 2026-05-06 05:40 | 34.90040 | -117.89226 | 2430 ft | 150 kts | 236° |
| 2026-05-06 05:40 | 34.89460 | -117.90327 | 2450 ft | 155 kts | 236° |
| 2026-05-06 05:41 | 34.88857 | -117.91474 | 2479 ft | 169 kts | 236° |
| 2026-05-06 05:41 | 34.88208 | -117.92709 | 3003 ft | 177 kts | 237° |
| 2026-05-06 05:41 | 34.87520 | -117.93953 | 3782 ft | 181 kts | 229° |
| 2026-05-06 05:41 | 34.86403 | -117.94685 | 4447 ft | 194 kts | 188° |
| 2026-05-06 05:42 | 34.85099 | -117.94306 | 5251 ft | 202 kts | 144° |
| 2026-05-06 05:42 | 34.84311 | -117.92982 | 6141 ft | 201 kts | 102° |
| 2026-05-06 05:42 | 34.84423 | -117.91357 | 7053 ft | 196 kts | 60° |
| 2026-05-06 05:42 | 34.84920 | -117.90449 | 7580 ft | 204 kts | 50° |
| 2026-05-06 05:43 | 34.86117 | -117.88545 | 8829 ft | 222 kts | 52° |
| 2026-05-06 05:43 | 34.87044 | -117.87019 | 9792 ft | 234 kts | 52° |
| 2026-05-06 05:43 | 34.88026 | -117.85397 | 10723 ft | 249 kts | 52° |
| 2026-05-06 05:43 | 34.89099 | -117.83621 | 11030 ft | 271 kts | 52° |
| 2026-05-06 05:44 | 34.90222 | -117.81757 | 10995 ft | 273 kts | 52° |
| 2026-05-06 05:44 | 34.91336 | -117.79902 | 11007 ft | 272 kts | 53° |
| 2026-05-06 05:44 | 34.92490 | -117.77985 | 11043 ft | 302 kts | 53° |
| 2026-05-06 05:44 | 34.93842 | -117.75736 | 11035 ft | 342 kts | 52° |
| 2026-05-06 05:45 | 34.95249 | -117.73390 | 10997 ft | 340 kts | 53° |
| 2026-05-06 05:45 | 34.96626 | -117.71091 | 10998 ft | 338 kts | 53° |
| 2026-05-06 05:45 | 34.98023 | -117.68761 | 11003 ft | 340 kts | 53° |
| 2026-05-06 05:45 | 34.99409 | -117.66444 | 11001 ft | 341 kts | 53° |
| 2026-05-06 05:46 | 35.00825 | -117.64076 | 10997 ft | 340 kts | 53° |
| 2026-05-06 05:46 | 35.02215 | -117.61752 | 10983 ft | 339 kts | 53° |
| 2026-05-06 05:46 | 35.03605 | -117.59423 | 10997 ft | 340 kts | 53° |
| 2026-05-06 05:46 | 35.04995 | -117.57096 | 11002 ft | 343 kts | 53° |
| 2026-05-06 05:47 | 35.06440 | -117.54786 | 10995 ft | 342 kts | 47° |
| 2026-05-06 05:47 | 35.08062 | -117.52685 | 11004 ft | 341 kts | 48° |
| 2026-05-06 05:47 | 35.09529 | -117.50395 | 11003 ft | 340 kts | 52° |
| 2026-05-06 05:47 | 35.10915 | -117.48044 | 11009 ft | 342 kts | 54° |
| 2026-05-06 05:48 | 35.12246 | -117.45644 | 11005 ft | 343 kts | 55° |
| 2026-05-06 05:48 | 35.13559 | -117.43196 | 11008 ft | 344 kts | 56° |
| 2026-05-06 05:48 | 35.14838 | -117.40757 | 10977 ft | 342 kts | 56° |
| 2026-05-06 05:48 | 35.16118 | -117.38281 | 11002 ft | 342 kts | 56° |
| 2026-05-06 05:49 | 35.17387 | -117.35830 | 10987 ft | 343 kts | 56° |
| 2026-05-06 05:49 | 35.18667 | -117.33352 | 11005 ft | 342 kts | 57° |
| 2026-05-06 05:49 | 35.19952 | -117.30868 | 11011 ft | 344 kts | 57° |
| 2026-05-06 05:49 | 35.21223 | -117.28404 | 10975 ft | 342 kts | 56° |
| 2026-05-06 05:50 | 35.22493 | -117.25952 | 10988 ft | 340 kts | 57° |
| 2026-05-06 05:50 | 35.23780 | -117.23460 | 11010 ft | 344 kts | 57° |
| 2026-05-06 05:50 | 35.25060 | -117.20979 | 10977 ft | 343 kts | 56° |
| 2026-05-06 05:50 | 35.26325 | -117.18528 | 10999 ft | 340 kts | 56° |
| 2026-05-06 05:51 | 35.27596 | -117.16065 | 10989 ft | 344 kts | 56° |
| 2026-05-06 05:51 | 35.28924 | -117.13638 | 10966 ft | 341 kts | 49° |
| 2026-05-06 05:51 | 35.30570 | -117.11571 | 10978 ft | 339 kts | 39° |
| 2026-05-06 05:51 | 35.32624 | -117.10208 | 11002 ft | 344 kts | 18° |
| 2026-05-06 05:52 | 35.35029 | -117.09883 | 10991 ft | 348 kts | 357° |
| 2026-05-06 05:52 | 35.37386 | -117.10580 | 10981 ft | 353 kts | 341° |
| 2026-05-06 05:52 | 35.39512 | -117.12100 | 10991 ft | 356 kts | 324° |
| 2026-05-06 05:52 | 35.41207 | -117.14315 | 10965 ft | 363 kts | 308° |
| 2026-05-06 05:53 | 35.42344 | -117.17082 | 10979 ft | 368 kts | 292° |
| 2026-05-06 05:53 | 35.42819 | -117.20205 | 10990 ft | 374 kts | 276° |
| 2026-05-06 05:53 | 35.42575 | -117.23392 | 11003 ft | 381 kts | 259° |
| 2026-05-06 05:53 | 35.41633 | -117.26421 | 10998 ft | 388 kts | 243° |
| 2026-05-06 05:54 | 35.40050 | -117.29083 | 10984 ft | 387 kts | 227° |
| 2026-05-06 05:54 | 35.38305 | -117.30939 | 11004 ft | 386 kts | 215° |
| 2026-05-06 05:54 | 35.36741 | -117.32017 | 11010 ft | 388 kts | 204° |
| 2026-05-06 05:54 | 35.33282 | -117.33088 | 11014 ft | 387 kts | 183° |
| 2026-05-06 05:55 | 35.30603 | -117.33412 | 10992 ft | 385 kts | 188° |
| 2026-05-06 05:55 | 35.28863 | -117.33865 | 11002 ft | 385 kts | 192° |
| 2026-05-06 05:55 | 35.26258 | -117.34702 | 11007 ft | 387 kts | 195° |
| 2026-05-06 05:55 | 35.22809 | -117.35985 | 10982 ft | 388 kts | 197° |
| 2026-05-06 05:56 | 35.20234 | -117.37009 | 11006 ft | 390 kts | 197° |
| 2026-05-06 05:56 | 35.17773 | -117.38208 | 10986 ft | 377 kts | 208° |
| 2026-05-06 05:56 | 35.15702 | -117.40065 | 10942 ft | 361 kts | 224° |
| 2026-05-06 05:56 | 35.14030 | -117.42316 | 10381 ft | 362 kts | 237° |
| 2026-05-06 05:57 | 35.12717 | -117.44906 | 9741 ft | 352 kts | 240° |
| 2026-05-06 05:57 | 35.11451 | -117.47378 | 9253 ft | 340 kts | 239° |
| 2026-05-06 05:57 | 35.10212 | -117.49787 | 8752 ft | 329 kts | 239° |
| 2026-05-06 05:57 | 35.09411 | -117.51344 | 8417 ft | 322 kts | 239° |
| 2026-05-06 05:58 | 35.08267 | -117.53614 | 7930 ft | 312 kts | 240° |
| 2026-05-06 05:58 | 35.06780 | -117.56566 | 7340 ft | 299 kts | 240° |
| 2026-05-06 05:58 | 35.05715 | -117.58668 | 6953 ft | 289 kts | 240° |
| 2026-05-06 05:58 | 35.04676 | -117.60711 | 6572 ft | 279 kts | 240° |
| 2026-05-06 05:59 | 35.03656 | -117.62712 | 6188 ft | 271 kts | 240° |
| 2026-05-06 05:59 | 35.02681 | -117.64619 | 5865 ft | 262 kts | 240° |
| 2026-05-06 05:59 | 35.01734 | -117.66468 | 5549 ft | 254 kts | 239° |
| 2026-05-06 05:59 | 35.00805 | -117.68283 | 5233 ft | 246 kts | 239° |
| 2026-05-06 06:00 | 34.99917 | -117.70020 | 4934 ft | 238 kts | 239° |
| 2026-05-06 06:00 | 34.99337 | -117.71156 | 4741 ft | 233 kts | 239° |
| 2026-05-06 06:00 | 34.98231 | -117.73326 | 4396 ft | 221 kts | 239° |
| 2026-05-06 06:00 | 34.97435 | -117.74886 | 4233 ft | 200 kts | 238° |
| 2026-05-06 06:01 | 34.96740 | -117.76249 | 4003 ft | 180 kts | 238° |
| 2026-05-06 06:01 | 34.96103 | -117.77499 | 3733 ft | 162 kts | 238° |
| 2026-05-06 06:01 | 34.95535 | -117.78612 | 3506 ft | 147 kts | 238° |
| 2026-05-06 06:01 | 34.95026 | -117.79609 | 3332 ft | 133 kts | 238° |
| 2026-05-06 06:02 | 34.94709 | -117.80230 | 3220 ft | 128 kts | 237° |
| 2026-05-06 06:02 | 34.94073 | -117.81474 | 3061 ft | 132 kts | 237° |
| 2026-05-06 06:02 | 34.93589 | -117.82423 | 2921 ft | 133 kts | 237° |
| 2026-05-06 06:02 | 34.93098 | -117.83382 | 2774 ft | 133 kts | 237° |
| 2026-05-06 06:03 | 34.92609 | -117.84340 | 2628 ft | 134 kts | 237° |
| 2026-05-06 06:03 | 34.92273 | -117.84995 | 2532 ft | 136 kts | 237° |
| 2026-05-06 06:03 | 34.91589 | -117.86327 | 2312 ft | 140 kts | 236° |
| 2026-05-06 06:03 | 34.91103 | -117.87271 | 2295 ft | 120 kts | 238° |
| 2026-05-06 06:04 | 34.90796 | -117.87877 | 2298 ft | 47 kts | 238° |
| 2026-05-06 06:04 | 34.90715 | -117.88033 | 2299 ft | 28 kts | 238° |
| 2026-05-06 06:04 | 34.90588 | -117.88277 | 2300 ft | 22 kts | 240° |
| 2026-05-06 06:04 | 34.90596 | -117.88420 | 2300 ft | 17 kts | 323° |
| 2026-05-06 06:05 | 34.90686 | -117.88489 | 2302 ft | 13 kts | 328° |
| 2026-05-06 06:05 | 34.90738 | -117.88528 | 2302 ft | 9 kts | 327° |
| 2026-05-06 06:05 | 34.90768 | -117.88552 | 2303 ft | 0 kts | 328° |